CBH2 weather

Helmet Airport
Helmet, British Columbia, Canada

Public forecast

Using degrees Celsius for public forecast. Weather courtesy of forecast.io.

METAR (pilot weather report)

Closest report is Fort Nelson Airport, 65.8 nm (121.8 km) WSW. Retrieved 2019/08/20 14:00 UTC (60 minutes ago):

CYYE 201400Z 34004KT 2SM -RA BR BKN002 BKN020 OVC045 05/05 A3001 RMK ST6SC1SC1 SLP181

TAF (pilot weather forecast)

Closest forecast is Fort Nelson Airport, 65.8 nm (121.8 km) WSW. Retrieved 2019/08/20 13:39 UTC (1 hour ago):

TAF CYYE 201238Z 2013/2101 VRB03KT P6SM SCT008 OVC040 TEMPO 2013/2019 4SM -RA BR BKN008 OVC030 PROB30 2013/2019 2SM BR OVC004 FM201900 12006KT P6SM -RA FEW006 SCT020 OVC040 TEMPO 2019/2101 5SM -RA BR SCT006 BKN020 OVC040 RMK NXT FCST BY 201900Z